Time;durP1;ratioP1;P1;durP2;ratioP2;P2;SDS_P1;SDS_P2;PMS_P1;PMS_P2;Temp;Humidity;BMP_temperature;BMP_pressure;BME280_temperature;BME280_humidity;BME280_pressure;Samples;Min_cycle;Max_cycle;Signal;HPM_P1;HPM_P2
2023/09/13 00:00:54;;;;;;;32.17;12.30;;;;;;;;;;5077670;28;20917;-76
2023/09/13 00:03:21;;;;;;;36.72;13.73;;;;;;;;;;5099959;28;20432;-76
2023/09/13 00:05:48;;;;;;;36.42;14.60;;;;;;;;;;5096766;28;20426;-76
2023/09/13 00:08:15;;;;;;;35.60;14.50;;;;;;;;;;5066979;28;20415;-77
2023/09/13 00:10:44;;;;;;;36.42;15.05;;;;;;;;;;5087822;28;20915;-75
2023/09/13 00:13:11;;;;;;;38.25;14.98;;;;;;;;;;5080770;28;20748;-79
2023/09/13 00:15:42;;;;;;;39.45;14.77;;;;;;;;;;5106363;28;20432;-77
2023/09/13 00:18:09;;;;;;;38.28;15.23;;;;;;;;;;5077498;28;20512;-78
2023/09/13 00:20:37;;;;;;;34.10;14.63;;;;;;;;;;5085420;28;20435;-78
2023/09/13 00:23:05;;;;;;;38.28;14.73;;;;;;;;;;5086164;28;20403;-77
2023/09/13 00:25:31;;;;;;;39.47;14.30;;;;;;;;;;5094704;28;20431;-78
2023/09/13 00:27:58;;;;;;;37.97;14.98;;;;;;;;;;5099764;28;20409;-74
2023/09/13 00:30:26;;;;;;;39.90;14.85;;;;;;;;;;5104932;28;20400;-78
2023/09/13 00:32:54;;;;;;;41.90;15.90;;;;;;;;;;5102885;28;20407;-80
2023/09/13 00:35:21;;;;;;;37.25;14.52;;;;;;;;;;5105178;28;20811;-79
2023/09/13 00:37:48;;;;;;;39.33;14.77;;;;;;;;;;5095491;28;20502;-77
2023/09/13 00:40:15;;;;;;;39.28;15.23;;;;;;;;;;5071677;28;20423;-78
2023/09/13 00:42:42;;;;;;;36.90;14.40;;;;;;;;;;5072514;28;20417;-79
2023/09/13 00:45:09;;;;;;;40.20;13.50;;;;;;;;;;5086153;28;21011;-78
2023/09/13 00:47:35;;;;;;;37.43;14.87;;;;;;;;;;5077499;28;20896;-79
2023/09/13 00:50:07;;;;;;;40.42;14.60;;;;;;;;;;5096122;28;20486;-78
2023/09/13 00:52:34;;;;;;;37.10;13.90;;;;;;;;;;5091508;28;20969;-78
2023/09/13 00:55:02;;;;;;;38.83;13.77;;;;;;;;;;5097224;28;20798;-78
2023/09/13 00:57:28;;;;;;;39.78;14.63;;;;;;;;;;5097867;28;20417;-76
2023/09/13 00:59:55;;;;;;;37.23;15.00;;;;;;;;;;5075026;28;20447;-78
2023/09/13 01:02:22;;;;;;;36.53;14.40;;;;;;;;;;5093036;28;20890;-79
2023/09/13 01:04:49;;;;;;;41.22;14.68;;;;;;;;;;5082189;28;20419;-75
2023/09/13 01:07:17;;;;;;;37.85;14.10;;;;;;;;;;5100551;28;20394;-78
2023/09/13 01:09:44;;;;;;;36.75;13.05;;;;;;;;;;5088778;28;21014;-77
2023/09/13 01:12:11;;;;;;;38.10;14.73;;;;;;;;;;5083651;28;20404;-78
2023/09/13 01:14:38;;;;;;;35.80;14.00;;;;;;;;;;5090777;28;20481;-76
2023/09/13 01:17:14;;;;;;;39.92;14.30;;;;;;;;;;5088259;28;20480;-77
2023/09/13 01:19:45;;;;;;;40.88;15.13;;;;;;;;;;5097291;28;20418;-77
2023/09/13 01:22:31;;;;;;;36.95;15.05;;;;;;;;;;5098727;28;20506;-78
2023/09/13 01:25:17;;;;;;;41.35;14.63;;;;;;;;;;5082373;28;20932;-77
2023/09/13 01:27:48;;;;;;;39.60;15.13;;;;;;;;;;5082980;28;20888;-78
2023/09/13 01:30:17;;;;;;;38.88;13.60;;;;;;;;;;5067232;28;20408;-78
2023/09/13 01:32:44;;;;;;;39.80;13.90;;;;;;;;;;5098836;28;20465;-78
2023/09/13 01:35:12;;;;;;;41.05;14.45;;;;;;;;;;5106472;28;20416;-78
2023/09/13 01:37:38;;;;;;;36.72;13.55;;;;;;;;;;5108627;28;20938;-78
2023/09/13 01:40:07;;;;;;;38.40;14.20;;;;;;;;;;5096720;28;20916;-77
2023/09/13 01:42:36;;;;;;;38.75;14.13;;;;;;;;;;5098755;28;20512;-77
2023/09/13 01:45:03;;;;;;;43.67;14.48;;;;;;;;;;5110380;27;20404;-77
2023/09/13 01:47:31;;;;;;;42.35;15.77;;;;;;;;;;5093305;28;20878;-77
2023/09/13 01:49:58;;;;;;;42.40;15.05;;;;;;;;;;5101193;28;20406;-77
2023/09/13 01:52:25;;;;;;;38.87;14.73;;;;;;;;;;5086936;28;20406;-77
2023/09/13 01:54:52;;;;;;;40.95;13.85;;;;;;;;;;5107716;28;20710;-77
2023/09/13 01:57:18;;;;;;;42.15;15.55;;;;;;;;;;5095195;28;20403;-77
2023/09/13 01:59:45;;;;;;;38.40;14.07;;;;;;;;;;5099323;28;20430;-77
2023/09/13 02:02:12;;;;;;;43.20;14.30;;;;;;;;;;5101229;28;20416;-78
2023/09/13 02:04:40;;;;;;;42.85;15.50;;;;;;;;;;5102636;28;20746;-78
2023/09/13 02:07:06;;;;;;;40.45;14.57;;;;;;;;;;5101502;28;20426;-77
2023/09/13 02:09:33;;;;;;;43.28;15.25;;;;;;;;;;5083890;28;20396;-78
2023/09/13 02:12:00;;;;;;;45.60;15.88;;;;;;;;;;5084020;28;20467;-78
2023/09/13 02:14:27;;;;;;;39.07;15.57;;;;;;;;;;5102289;28;20406;-76
2023/09/13 02:16:57;;;;;;;41.13;15.25;;;;;;;;;;5098567;28;20514;-77
2023/09/13 02:19:24;;;;;;;50.35;16.35;;;;;;;;;;5105139;28;20515;-77
2023/09/13 02:21:52;;;;;;;46.95;15.10;;;;;;;;;;5082972;28;20422;-78
2023/09/13 02:24:19;;;;;;;43.25;15.50;;;;;;;;;;5097273;28;20761;-77
2023/09/13 02:26:45;;;;;;;41.95;16.70;;;;;;;;;;5082076;28;20400;-76
2023/09/13 02:29:12;;;;;;;43.72;16.98;;;;;;;;;;5091915;28;20489;-77
2023/09/13 02:31:39;;;;;;;47.97;17.65;;;;;;;;;;5098583;28;20497;-76
2023/09/13 02:34:06;;;;;;;51.47;17.55;;;;;;;;;;5089718;28;20425;-78
2023/09/13 02:36:33;;;;;;;44.85;16.48;;;;;;;;;;5086559;28;20422;-77
2023/09/13 02:39:01;;;;;;;50.00;17.10;;;;;;;;;;5108381;28;20502;-76
2023/09/13 02:41:29;;;;;;;50.50;16.90;;;;;;;;;;5080568;28;20482;-76
2023/09/13 02:43:55;;;;;;;46.03;16.63;;;;;;;;;;5093762;28;20413;-77
2023/09/13 02:46:22;;;;;;;45.25;16.80;;;;;;;;;;5095968;28;20408;-76
2023/09/13 02:48:49;;;;;;;46.55;16.20;;;;;;;;;;5100298;28;20449;-77
2023/09/13 02:51:16;;;;;;;43.27;16.80;;;;;;;;;;5100950;28;20415;-77
2023/09/13 02:53:42;;;;;;;48.93;16.87;;;;;;;;;;5084298;28;20941;-77
2023/09/13 02:56:12;;;;;;;46.53;17.30;;;;;;;;;;5100053;28;20422;-78
2023/09/13 02:58:39;;;;;;;47.95;16.75;;;;;;;;;;5103104;28;20802;-77
2023/09/13 03:01:07;;;;;;;45.85;17.63;;;;;;;;;;5107907;28;20416;-77
2023/09/13 03:03:34;;;;;;;42.00;16.33;;;;;;;;;;5097507;28;20436;-76
2023/09/13 03:06:10;;;;;;;44.53;16.65;;;;;;;;;;5075739;28;20447;-76
2023/09/13 03:08:37;;;;;;;43.13;16.33;;;;;;;;;;5091719;28;20400;-77
2023/09/13 03:11:12;;;;;;;49.00;16.80;;;;;;;;;;5067156;28;20526;-77
2023/09/13 03:13:39;;;;;;;46.67;17.85;;;;;;;;;;5073401;28;20810;-77
2023/09/13 03:16:12;;;;;;;45.85;17.75;;;;;;;;;;5102309;28;20892;-76
2023/09/13 03:18:39;;;;;;;52.07;18.60;;;;;;;;;;5086448;28;20423;-76
2023/09/13 03:21:08;;;;;;;60.25;19.45;;;;;;;;;;5090690;28;20412;-77
2023/09/13 03:23:37;;;;;;;52.88;20.13;;;;;;;;;;5090668;28;20967;-77
2023/09/13 03:26:11;;;;;;;63.75;21.65;;;;;;;;;;5093016;28;20451;-76
2023/09/13 03:28:38;;;;;;;61.22;22.08;;;;;;;;;;5092336;28;20416;-76
2023/09/13 03:31:10;;;;;;;61.90;22.65;;;;;;;;;;5088795;28;20409;-76
2023/09/13 03:33:37;;;;;;;65.07;23.50;;;;;;;;;;5094780;28;20410;-76
2023/09/13 03:36:04;;;;;;;66.38;25.25;;;;;;;;;;5073270;28;20451;-78
2023/09/13 03:38:31;;;;;;;64.80;24.48;;;;;;;;;;5101714;28;20412;-76
2023/09/13 03:40:58;;;;;;;72.30;25.92;;;;;;;;;;5080731;28;20419;-77
2023/09/13 03:43:26;;;;;;;73.13;26.33;;;;;;;;;;5092039;28;20421;-77
2023/09/13 03:45:53;;;;;;;79.22;25.73;;;;;;;;;;5092888;28;20426;-77
2023/09/13 03:48:20;;;;;;;73.40;27.30;;;;;;;;;;5081817;28;20417;-76
2023/09/13 03:50:46;;;;;;;77.93;27.65;;;;;;;;;;5081730;28;20408;-77
2023/09/13 03:53:13;;;;;;;77.90;28.02;;;;;;;;;;5105886;28;20487;-76
2023/09/13 03:55:40;;;;;;;71.50;26.40;;;;;;;;;;5081122;28;20400;-77
2023/09/13 03:58:07;;;;;;;80.28;26.90;;;;;;;;;;5101220;28;20414;-76
2023/09/13 04:00:36;;;;;;;79.40;27.73;;;;;;;;;;5096148;28;20467;-75
2023/09/13 04:03:03;;;;;;;75.70;27.20;;;;;;;;;;5079693;28;20425;-76
2023/09/13 04:05:29;;;;;;;83.20;28.20;;;;;;;;;;5078205;28;20395;-77
2023/09/13 04:07:56;;;;;;;81.45;27.80;;;;;;;;;;5092894;28;20413;-77
2023/09/13 04:10:23;;;;;;;84.72;28.17;;;;;;;;;;5089520;28;20419;-76
2023/09/13 04:12:50;;;;;;;83.88;28.65;;;;;;;;;;5100599;28;20491;-78
2023/09/13 04:15:18;;;;;;;88.33;28.53;;;;;;;;;;5103223;28;20503;-80
2023/09/13 04:17:46;;;;;;;82.03;27.63;;;;;;;;;;5102616;28;20404;-78
2023/09/13 04:20:13;;;;;;;87.70;28.47;;;;;;;;;;5109000;28;20613;-76
2023/09/13 04:22:39;;;;;;;78.32;28.63;;;;;;;;;;5077152;28;20413;-76
2023/09/13 04:25:07;;;;;;;75.83;24.50;;;;;;;;;;5092384;28;20241;-76
2023/09/13 04:27:35;;;;;;;;;;;;;;;;;;5080740;28;20358;-78
2023/09/13 04:30:02;;;;;;;79.50;27.00;;;;;;;;;;5099671;28;20239;-76
2023/09/13 04:32:29;;;;;;;66.10;24.60;;;;;;;;;;5101610;28;20501;-76
2023/09/13 04:34:58;;;;;;;76.93;26.53;;;;;;;;;;5101177;28;20429;-76
2023/09/13 04:37:25;;;;;;;103.15;35.75;;;;;;;;;;5100644;28;20803;-75
2023/09/13 04:39:53;;;;;;;107.93;36.67;;;;;;;;;;5099436;28;20487;-75
2023/09/13 04:42:20;;;;;;;114.35;35.83;;;;;;;;;;5103722;28;20478;-76
2023/09/13 04:44:46;;;;;;;102.90;32.15;;;;;;;;;;5079651;28;20778;-76
2023/09/13 04:47:13;;;;;;;94.93;33.42;;;;;;;;;;5098673;28;20408;-77
2023/09/13 04:49:40;;;;;;;100.40;34.28;;;;;;;;;;5099950;28;20413;-76
2023/09/13 04:52:10;;;;;;;97.00;33.90;;;;;;;;;;5086741;28;20428;-77
2023/09/13 04:54:38;;;;;;;95.63;32.72;;;;;;;;;;5096050;28;20406;-75
2023/09/13 04:57:05;;;;;;;104.53;35.53;;;;;;;;;;5087904;28;20463;-76
2023/09/13 04:59:40;;;;;;;93.55;32.17;;;;;;;;;;5110935;28;20495;-76
2023/09/13 05:02:07;;;;;;;94.45;32.92;;;;;;;;;;5107691;28;20451;-76
2023/09/13 05:04:34;;;;;;;91.57;31.92;;;;;;;;;;5095223;28;20411;-76
2023/09/13 05:07:01;;;;;;;106.80;34.17;;;;;;;;;;5097932;28;20413;-76
2023/09/13 05:09:30;;;;;;;101.25;31.85;;;;;;;;;;5095144;28;20400;-78
2023/09/13 05:11:56;;;;;;;99.88;31.23;;;;;;;;;;5098816;28;20466;-76
2023/09/13 05:14:23;;;;;;;95.88;32.28;;;;;;;;;;5085502;28;20418;-76
2023/09/13 05:16:50;;;;;;;100.22;34.55;;;;;;;;;;5089573;28;20427;-76
2023/09/13 05:19:18;;;;;;;105.50;34.42;;;;;;;;;;5100644;28;20395;-76
2023/09/13 05:21:44;;;;;;;105.80;32.93;;;;;;;;;;5110426;28;20405;-77
2023/09/13 05:24:11;;;;;;;101.90;33.25;;;;;;;;;;5093902;28;20467;-78
2023/09/13 05:26:39;;;;;;;104.72;33.38;;;;;;;;;;5099708;28;20422;-77
2023/09/13 05:29:06;;;;;;;99.28;31.50;;;;;;;;;;5063288;28;20450;-77
2023/09/13 05:31:33;;;;;;;105.45;32.85;;;;;;;;;;5098138;28;20512;-78
2023/09/13 05:34:00;;;;;;;102.43;31.75;;;;;;;;;;5102707;28;20432;-76
2023/09/13 05:36:27;;;;;;;99.38;33.30;;;;;;;;;;5103684;28;20481;-75
2023/09/13 05:38:53;;;;;;;114.35;32.28;;;;;;;;;;5087195;28;20507;-76
2023/09/13 05:41:23;;;;;;;99.38;33.03;;;;;;;;;;5113991;28;20408;-79
2023/09/13 05:43:52;;;;;;;101.55;33.25;;;;;;;;;;5098540;28;20422;-78
2023/09/13 05:46:18;;;;;;;92.32;30.63;;;;;;;;;;5094419;28;20422;-77
2023/09/13 05:48:45;;;;;;;95.85;30.13;;;;;;;;;;5098234;28;20404;-77
2023/09/13 05:51:12;;;;;;;90.33;29.80;;;;;;;;;;5102778;28;20412;-76
2023/09/13 05:53:39;;;;;;;84.25;29.38;;;;;;;;;;5082572;28;20446;-76
2023/09/13 05:56:09;;;;;;;90.47;28.88;;;;;;;;;;5100912;28;20408;-77
2023/09/13 05:58:36;;;;;;;94.35;29.15;;;;;;;;;;5095910;28;20414;-76
2023/09/13 06:01:05;;;;;;;85.20;27.87;;;;;;;;;;5105488;28;20410;-76
2023/09/13 06:03:33;;;;;;;83.53;26.58;;;;;;;;;;5082870;28;20444;-76
2023/09/13 06:06:00;;;;;;;90.33;29.17;;;;;;;;;;5079037;28;20593;-76
2023/09/13 06:08:26;;;;;;;77.25;28.17;;;;;;;;;;5099232;28;20392;-77
2023/09/13 06:10:53;;;;;;;86.40;28.45;;;;;;;;;;5097940;28;20454;-79
2023/09/13 06:13:20;;;;;;;72.95;26.45;;;;;;;;;;5096656;28;20971;-80
2023/09/13 06:15:47;;;;;;;70.32;23.88;;;;;;;;;;5103674;28;20409;-78
2023/09/13 06:18:15;;;;;;;64.95;25.40;;;;;;;;;;5092571;28;20439;-77
2023/09/13 06:20:42;;;;;;;56.28;21.90;;;;;;;;;;5086912;28;20418;-78
2023/09/13 06:23:30;;;;;;;60.70;22.63;;;;;;;;;;5085868;28;20416;-77
2023/09/13 06:25:56;;;;;;;55.75;21.70;;;;;;;;;;5076831;28;20408;-77
2023/09/13 06:28:23;;;;;;;57.00;21.33;;;;;;;;;;5096888;28;20428;-77
2023/09/13 06:30:50;;;;;;;57.35;21.08;;;;;;;;;;5098465;28;20454;-79
2023/09/13 06:33:32;;;;;;;53.10;20.63;;;;;;;;;;5096158;28;20441;-77
2023/09/13 06:36:08;;;;;;;50.47;20.13;;;;;;;;;;5097760;28;20424;-77
2023/09/13 06:38:35;;;;;;;54.23;21.30;;;;;;;;;;5105332;28;20400;-77
2023/09/13 06:41:03;;;;;;;49.67;19.55;;;;;;;;;;5092966;28;20408;-77
2023/09/13 06:43:30;;;;;;;54.55;19.83;;;;;;;;;;5084171;28;20457;-77
2023/09/13 06:45:59;;;;;;;51.65;20.15;;;;;;;;;;5083909;28;20475;-78
2023/09/13 06:48:33;;;;;;;50.75;20.65;;;;;;;;;;5077584;28;20838;-77
2023/09/13 06:51:01;;;;;;;49.17;19.70;;;;;;;;;;5098452;28;20407;-78
2023/09/13 06:53:48;;;;;;;44.72;18.23;;;;;;;;;;5075791;28;20906;-77
2023/09/13 06:56:17;;;;;;;45.42;19.55;;;;;;;;;;5100799;28;20396;-78
2023/09/13 06:58:48;;;;;;;48.15;18.77;;;;;;;;;;5102542;28;20404;-79
2023/09/13 07:01:17;;;;;;;52.17;20.88;;;;;;;;;;5101705;28;20413;-77
2023/09/13 07:04:06;;;;;;;50.17;18.67;;;;;;;;;;5097004;28;20902;-80
2023/09/13 07:06:38;;;;;;;49.20;19.30;;;;;;;;;;5093162;28;20398;-78
2023/09/13 07:09:05;;;;;;;49.22;19.60;;;;;;;;;;5090962;28;20435;-78
2023/09/13 07:11:32;;;;;;;53.72;20.33;;;;;;;;;;5077851;28;20476;-78
2023/09/13 07:13:59;;;;;;;47.58;20.17;;;;;;;;;;5102789;28;20433;-78
2023/09/13 07:16:26;;;;;;;48.17;19.77;;;;;;;;;;5098506;28;20409;-77
2023/09/13 07:18:54;;;;;;;48.50;19.15;;;;;;;;;;5088622;28;20424;-77
2023/09/13 07:21:23;;;;;;;45.35;18.67;;;;;;;;;;5108552;28;20428;-79
2023/09/13 07:23:51;;;;;;;47.93;18.27;;;;;;;;;;5103080;28;20440;-77
2023/09/13 07:26:17;;;;;;;45.38;18.33;;;;;;;;;;5084500;28;20401;-80
2023/09/13 07:28:44;;;;;;;44.00;17.58;;;;;;;;;;5090871;28;20400;-78
2023/09/13 07:31:11;;;;;;;41.83;17.70;;;;;;;;;;5078070;28;20497;-80
2023/09/13 07:33:38;;;;;;;39.67;17.67;;;;;;;;;;5100001;28;20925;-78
2023/09/13 07:36:05;;;;;;;41.92;16.92;;;;;;;;;;5098003;28;20514;-79
2023/09/13 07:38:34;;;;;;;42.20;17.90;;;;;;;;;;5077747;28;20759;-78
2023/09/13 07:41:01;;;;;;;43.58;17.77;;;;;;;;;;5102384;28;20404;-78
2023/09/13 07:43:28;;;;;;;41.60;17.80;;;;;;;;;;5105360;28;20418;-77
2023/09/13 07:45:55;;;;;;;39.67;17.93;;;;;;;;;;5094194;28;20401;-77
2023/09/13 07:48:22;;;;;;;43.65;17.20;;;;;;;;;;5082372;28;20993;-78
2023/09/13 07:50:49;;;;;;;40.03;16.77;;;;;;;;;;5093109;28;20398;-78
2023/09/13 07:53:16;;;;;;;47.00;18.03;;;;;;;;;;5091353;28;20408;-77
2023/09/13 07:55:44;;;;;;;44.90;18.02;;;;;;;;;;5096649;28;20487;-78
2023/09/13 07:58:11;;;;;;;40.60;16.20;;;;;;;;;;5101417;28;20472;-79
2023/09/13 08:00:37;;;;;;;42.45;16.88;;;;;;;;;;5100022;28;20453;-80
2023/09/13 08:03:05;;;;;;;39.10;16.48;;;;;;;;;;5101249;28;20404;-77
2023/09/13 08:05:31;;;;;;;42.75;17.27;;;;;;;;;;5095641;28;20879;-79
2023/09/13 08:07:59;;;;;;;38.33;15.60;;;;;;;;;;5081210;28;20410;-81
2023/09/13 08:10:26;;;;;;;38.05;14.57;;;;;;;;;;5094089;28;20914;-80
2023/09/13 08:12:54;;;;;;;36.15;14.77;;;;;;;;;;5094885;28;20947;-80
2023/09/13 08:15:20;;;;;;;39.78;15.23;;;;;;;;;;5104078;28;20486;-79
2023/09/13 08:18:07;;;;;;;35.15;15.10;;;;;;;;;;5086551;28;20412;-80
2023/09/13 08:20:34;;;;;;;35.83;13.82;;;;;;;;;;5090169;28;20845;-78
2023/09/13 08:23:00;;;;;;;32.92;14.05;;;;;;;;;;5103607;28;20426;-80
2023/09/13 08:25:28;;;;;;;37.22;13.70;;;;;;;;;;5090795;28;20469;-80
2023/09/13 08:27:57;;;;;;;33.45;12.20;;;;;;;;;;5078191;28;20443;-78
2023/09/13 08:30:24;;;;;;;32.70;12.23;;;;;;;;;;5098911;28;20428;-80
2023/09/13 08:32:50;;;;;;;29.02;11.68;;;;;;;;;;5097914;28;20459;-80
2023/09/13 08:35:17;;;;;;;30.95;11.38;;;;;;;;;;5104265;28;20396;-78
2023/09/13 08:37:44;;;;;;;28.95;11.60;;;;;;;;;;5102967;28;20953;-78
2023/09/13 08:40:11;;;;;;;27.33;10.00;;;;;;;;;;5104826;28;20762;-78
2023/09/13 08:42:40;;;;;;;28.05;11.57;;;;;;;;;;5106696;28;20855;-80
2023/09/13 08:45:08;;;;;;;28.25;10.38;;;;;;;;;;5103702;28;20465;-79
2023/09/13 08:47:42;;;;;;;31.23;11.57;;;;;;;;;;5100153;28;20404;-79
2023/09/13 08:50:26;;;;;;;30.30;10.95;;;;;;;;;;5098640;28;20428;-79
2023/09/13 08:52:53;;;;;;;31.33;12.13;;;;;;;;;;5104541;28;20404;-76
2023/09/13 08:55:21;;;;;;;28.50;11.55;;;;;;;;;;5082313;28;20449;-78
2023/09/13 08:57:49;;;;;;;29.15;11.85;;;;;;;;;;5078026;28;20530;-79
2023/09/13 09:00:18;;;;;;;27.70;12.00;;;;;;;;;;5106321;28;20418;-78
2023/09/13 09:02:46;;;;;;;27.95;11.25;;;;;;;;;;5089306;28;20779;-78
2023/09/13 09:05:15;;;;;;;30.77;12.45;;;;;;;;;;5095901;28;20470;-77
2023/09/13 09:07:43;;;;;;;28.75;11.55;;;;;;;;;;5096738;28;20483;-79
2023/09/13 09:10:12;;;;;;;27.73;10.10;;;;;;;;;;5101113;28;20408;-79
2023/09/13 09:12:41;;;;;;;35.33;11.57;;;;;;;;;;5100113;28;20493;-78
2023/09/13 09:15:08;;;;;;;31.50;11.35;;;;;;;;;;5086483;28;20459;-79
2023/09/13 09:17:36;;;;;;;30.10;11.63;;;;;;;;;;5087147;28;20402;-78
2023/09/13 09:20:04;;;;;;;28.75;11.05;;;;;;;;;;5106510;28;20397;-79
2023/09/13 09:22:31;;;;;;;30.60;10.30;;;;;;;;;;5104595;28;20406;-78
2023/09/13 09:24:59;;;;;;;25.95;9.60;;;;;;;;;;5091433;28;20436;-79
2023/09/13 09:27:25;;;;;;;29.17;10.40;;;;;;;;;;5085725;28;20404;-79
2023/09/13 09:29:59;;;;;;;26.02;9.13;;;;;;;;;;5060073;28;20420;-80
2023/09/13 09:32:26;;;;;;;29.83;10.15;;;;;;;;;;5099928;28;20955;-80
2023/09/13 09:34:55;;;;;;;26.83;8.80;;;;;;;;;;5104710;28;20452;-79
2023/09/13 09:37:27;;;;;;;26.73;9.55;;;;;;;;;;5099860;28;20401;-79
2023/09/13 09:39:54;;;;;;;23.92;8.00;;;;;;;;;;5099777;28;20436;-78
2023/09/13 09:42:21;;;;;;;23.92;8.38;;;;;;;;;;5079344;28;20939;-79
2023/09/13 09:44:48;;;;;;;24.42;8.10;;;;;;;;;;5102852;28;20828;-78
2023/09/13 09:47:14;;;;;;;27.05;8.80;;;;;;;;;;5105290;28;20414;-80
2023/09/13 09:49:42;;;;;;;22.27;7.50;;;;;;;;;;5091632;28;20415;-78
2023/09/13 09:52:11;;;;;;;25.47;7.80;;;;;;;;;;5096332;28;20762;-80
2023/09/13 09:54:38;;;;;;;24.05;7.90;;;;;;;;;;5079919;28;20498;-79
2023/09/13 09:57:04;;;;;;;24.42;7.20;;;;;;;;;;5099850;28;20889;-80
2023/09/13 09:59:32;;;;;;;23.42;8.43;;;;;;;;;;5102869;28;20422;-79
2023/09/13 10:02:00;;;;;;;23.98;8.20;;;;;;;;;;5088357;28;20412;-81
2023/09/13 10:04:27;;;;;;;22.90;6.90;;;;;;;;;;5090494;28;20422;-80
2023/09/13 10:06:55;;;;;;;23.95;7.65;;;;;;;;;;5086291;28;20449;-77
2023/09/13 10:09:24;;;;;;;24.55;8.43;;;;;;;;;;5081177;28;20424;-81
2023/09/13 10:11:55;;;;;;;23.23;8.15;;;;;;;;;;5096126;28;20501;-80
2023/09/13 10:14:26;;;;;;;25.80;7.80;;;;;;;;;;5098196;28;20412;-80
2023/09/13 10:16:54;;;;;;;24.23;7.45;;;;;;;;;;5102201;28;20991;-77
2023/09/13 10:19:22;;;;;;;23.20;7.40;;;;;;;;;;5083711;28;20914;-78
2023/09/13 10:21:50;;;;;;;22.83;7.85;;;;;;;;;;5099295;28;20400;-79
2023/09/13 10:24:17;;;;;;;22.50;7.37;;;;;;;;;;5100974;28;20838;-77
2023/09/13 10:26:49;;;;;;;26.38;7.25;;;;;;;;;;5107019;28;20400;-78
2023/09/13 10:29:17;;;;;;;21.07;6.50;;;;;;;;;;5094406;28;20497;-80
2023/09/13 10:31:46;;;;;;;21.20;5.38;;;;;;;;;;5098277;28;20402;-78
2023/09/13 10:34:15;;;;;;;20.45;5.80;;;;;;;;;;5095596;28;20779;-78
2023/09/13 10:36:45;;;;;;;21.43;5.50;;;;;;;;;;5100542;28;20859;-77
2023/09/13 10:39:15;;;;;;;19.52;5.82;;;;;;;;;;5098189;28;20399;-80
2023/09/13 10:41:47;;;;;;;22.27;5.80;;;;;;;;;;5080686;28;20461;-78
2023/09/13 10:44:15;;;;;;;23.13;5.72;;;;;;;;;;5091998;28;20476;-78
2023/09/13 10:46:42;;;;;;;22.05;5.50;;;;;;;;;;5075516;28;20904;-77
2023/09/13 10:49:09;;;;;;;20.90;5.20;;;;;;;;;;5065629;28;20927;-78
2023/09/13 10:51:38;;;;;;;20.87;5.80;;;;;;;;;;5072997;28;20402;-77
2023/09/13 10:54:05;;;;;;;21.67;5.80;;;;;;;;;;5076043;28;20422;-78
2023/09/13 10:56:31;;;;;;;19.80;5.22;;;;;;;;;;5095585;28;20457;-77
2023/09/13 10:58:59;;;;;;;18.60;4.50;;;;;;;;;;5092695;28;20958;-76
2023/09/13 11:01:28;;;;;;;22.47;4.90;;;;;;;;;;5102166;28;20473;-78
2023/09/13 11:03:55;;;;;;;18.33;4.30;;;;;;;;;;5098317;28;20403;-77
2023/09/13 11:06:23;;;;;;;24.10;5.53;;;;;;;;;;5098091;28;20502;-76
2023/09/13 11:08:50;;;;;;;20.58;5.13;;;;;;;;;;5098516;28;20396;-80
2023/09/13 11:11:18;;;;;;;18.58;4.80;;;;;;;;;;5091975;28;20484;-76
2023/09/13 11:13:45;;;;;;;19.70;4.60;;;;;;;;;;5096363;28;20503;-80
2023/09/13 11:16:13;;;;;;;20.02;4.30;;;;;;;;;;5082056;28;20402;-76
2023/09/13 11:18:49;;;;;;;18.52;4.72;;;;;;;;;;5099999;28;20503;-77
2023/09/13 11:21:20;;;;;;;18.10;4.50;;;;;;;;;;5099839;28;20403;-75
2023/09/13 11:23:50;;;;;;;19.17;4.90;;;;;;;;;;5100239;28;20402;-77
2023/09/13 11:26:38;;;;;;;18.33;4.90;;;;;;;;;;5101376;28;20420;-75
2023/09/13 11:29:19;;;;;;;19.58;4.05;;;;;;;;;;5093555;28;20453;-75
2023/09/13 11:31:55;;;;;;;20.23;4.10;;;;;;;;;;5088126;28;20419;-74
2023/09/13 11:34:28;;;;;;;18.40;3.65;;;;;;;;;;5069592;28;20477;-76
2023/09/13 11:36:57;;;;;;;19.40;4.30;;;;;;;;;;5083645;28;20411;-78
2023/09/13 11:39:24;;;;;;;17.02;4.00;;;;;;;;;;5097743;28;20409;-75
2023/09/13 11:41:51;;;;;;;17.25;3.88;;;;;;;;;;5098812;28;20407;-75
2023/09/13 11:44:21;;;;;;;17.02;3.58;;;;;;;;;;5098948;28;20448;-76
2023/09/13 11:46:59;;;;;;;18.33;4.45;;;;;;;;;;5085996;28;20438;-75
2023/09/13 11:49:28;;;;;;;18.42;4.00;;;;;;;;;;5097275;28;20482;-75
2023/09/13 11:52:03;;;;;;;20.58;4.50;;;;;;;;;;5076788;28;20914;-77
2023/09/13 11:54:54;;;;;;;25.08;4.75;;;;;;;;;;5072900;28;20437;-78
2023/09/13 11:57:47;;;;;;;18.95;4.30;;;;;;;;;;5081887;28;20939;-75
2023/09/13 12:00:27;;;;;;;18.67;3.90;;;;;;;;;;5072627;28;21360;-77
2023/09/13 12:02:57;;;;;;;17.60;4.32;;;;;;;;;;5098931;28;20408;-75
2023/09/13 12:05:30;;;;;;;19.38;4.38;;;;;;;;;;5103078;28;20448;-76
2023/09/13 12:08:21;;;;;;;16.10;2.70;;;;;;;;;;5098571;28;20396;-83
2023/09/13 12:10:55;;;;;;;16.52;3.25;;;;;;;;;;5099988;28;20394;-82
2023/09/13 12:13:42;;;;;;;16.45;2.80;;;;;;;;;;5104842;28;20811;-81
2023/09/13 12:16:29;;;;;;;16.13;2.70;;;;;;;;;;5098272;28;20449;-80
2023/09/13 12:18:56;;;;;;;15.30;2.30;;;;;;;;;;5108957;28;20424;-81
2023/09/13 12:21:24;;;;;;;15.50;2.30;;;;;;;;;;5104684;28;20414;-80
2023/09/13 12:23:51;;;;;;;16.13;3.00;;;;;;;;;;5095463;28;20430;-79
2023/09/13 12:26:20;;;;;;;16.25;3.00;;;;;;;;;;5098387;28;20424;-80
2023/09/13 12:28:49;;;;;;;16.90;3.63;;;;;;;;;;5098152;28;20412;-83
2023/09/13 12:31:16;;;;;;;18.83;4.50;;;;;;;;;;5103448;28;20469;-82
2023/09/13 12:33:45;;;;;;;16.70;4.07;;;;;;;;;;5104651;28;20498;-84
2023/09/13 12:36:16;;;;;;;18.35;5.10;;;;;;;;;;5071472;28;20395;-82
2023/09/13 12:38:48;;;;;;;19.83;6.28;;;;;;;;;;5080282;28;20400;-83
2023/09/13 12:41:29;;;;;;;23.05;7.22;;;;;;;;;;5079592;28;20937;-84
2023/09/13 12:44:01;;;;;;;21.97;7.60;;;;;;;;;;5108287;28;20457;-84
2023/09/13 12:46:35;;;;;;;21.88;7.85;;;;;;;;;;5095747;28;20416;-86
2023/09/13 12:49:10;;;;;;;23.55;9.05;;;;;;;;;;5088967;28;20449;-82
2023/09/13 12:52:01;;;;;;;21.83;8.60;;;;;;;;;;5097610;28;21015;-83
2023/09/13 12:54:35;;;;;;;22.77;8.73;;;;;;;;;;5088806;28;20449;-83
2023/09/13 12:57:05;;;;;;;24.03;8.67;;;;;;;;;;5095488;28;20401;-82
2023/09/13 12:59:50;;;;;;;23.10;8.25;;;;;;;;;;5098971;28;20944;-82
2023/09/13 13:02:30;;;;;;;25.35;9.27;;;;;;;;;;5092109;28;20399;-85
2023/09/13 13:05:00;;;;;;;27.30;11.05;;;;;;;;;;5073699;28;20419;-82
2023/09/13 13:07:28;;;;;;;28.20;11.95;;;;;;;;;;5091938;28;20438;-85
2023/09/13 13:10:04;;;;;;;30.70;13.55;;;;;;;;;;5094118;28;20496;-81
2023/09/13 13:12:41;;;;;;;31.95;15.05;;;;;;;;;;5059172;28;20427;-82
2023/09/13 13:15:11;;;;;;;32.63;16.35;;;;;;;;;;5094841;28;20405;-82
2023/09/13 13:17:40;;;;;;;37.35;16.48;;;;;;;;;;5101744;28;20938;-82
2023/09/13 13:20:11;;;;;;;32.42;15.38;;;;;;;;;;5080005;28;20440;-81
2023/09/13 13:22:53;;;;;;;29.38;11.38;;;;;;;;;;5098188;28;20945;-80
2023/09/13 13:25:32;;;;;;;24.65;9.25;;;;;;;;;;5103831;28;20412;-82
2023/09/13 13:27:58;;;;;;;23.92;9.60;;;;;;;;;;5117373;28;20419;-82
2023/09/13 13:30:27;;;;;;;24.88;9.57;;;;;;;;;;5114067;28;20407;-83
2023/09/13 13:32:54;;;;;;;24.95;9.50;;;;;;;;;;5100764;28;21029;-83
2023/09/13 13:35:21;;;;;;;25.33;9.30;;;;;;;;;;5105699;28;20454;-82
2023/09/13 13:37:56;;;;;;;23.97;9.30;;;;;;;;;;5102357;28;20420;-82
2023/09/13 13:40:24;;;;;;;25.98;9.68;;;;;;;;;;5094047;28;20392;-82
2023/09/13 13:43:07;;;;;;;24.15;9.55;;;;;;;;;;5111359;28;20745;-83
2023/09/13 13:45:40;;;;;;;24.45;9.27;;;;;;;;;;5110639;28;20990;-84
2023/09/13 13:48:20;;;;;;;26.27;11.30;;;;;;;;;;5103796;28;20410;-83
2023/09/13 13:50:48;;;;;;;31.02;11.10;;;;;;;;;;5096528;28;20418;-84
2023/09/13 13:53:26;;;;;;;25.20;10.43;;;;;;;;;;5097621;28;20487;-84
2023/09/13 13:55:57;;;;;;;24.75;10.57;;;;;;;;;;5095871;28;20392;-83
2023/09/13 13:58:27;;;;;;;25.77;10.70;;;;;;;;;;5097334;28;20422;-85
2023/09/13 14:01:09;;;;;;;26.38;11.05;;;;;;;;;;5086721;28;20408;-86
2023/09/13 14:03:54;;;;;;;30.50;12.60;;;;;;;;;;5101461;28;20411;-85
2023/09/13 14:06:23;;;;;;;29.13;12.20;;;;;;;;;;5093102;28;20419;-83
2023/09/13 14:08:53;;;;;;;28.40;13.20;;;;;;;;;;5097150;28;20419;-85
2023/09/13 14:11:36;;;;;;;31.58;13.35;;;;;;;;;;5095427;28;20398;-86
2023/09/13 14:14:06;;;;;;;29.50;13.68;;;;;;;;;;5080309;28;20491;-84
2023/09/13 14:16:40;;;;;;;29.75;13.98;;;;;;;;;;5091544;28;20406;-85
2023/09/13 14:19:08;;;;;;;27.50;12.45;;;;;;;;;;5104418;28;20402;-83
2023/09/13 14:21:35;;;;;;;27.25;11.30;;;;;;;;;;5102256;28;20483;-82
2023/09/13 14:24:04;;;;;;;30.48;11.68;;;;;;;;;;5104460;28;20403;-86
2023/09/13 14:26:35;;;;;;;24.70;11.25;;;;;;;;;;5097136;28;20413;-84
2023/09/13 14:29:07;;;;;;;28.03;9.97;;;;;;;;;;5082100;28;20404;-85
2023/09/13 14:31:38;;;;;;;26.73;10.05;;;;;;;;;;5104946;28;20412;-83
2023/09/13 14:34:08;;;;;;;25.50;10.45;;;;;;;;;;5071158;28;20988;-88